Tiempo atmosférico en la estación meteorológica de Colunga, Asturias (35 m.)



Fecha
DESCASC
Temp. máxima en grados centígrados (hora)
DESCASC
Temp. mínima en grados centígrados (hora)
DESCASC
Temp. media en grados centígrados
DESCASC
Racha de viento máxima en m/sg (hora)
DESCASC
Velocidad máxima media en intervalos de 10 minutos(hora)
DESCASC
Precipitaciones diarias en mm
DESCASC
Precipitaciones de 00:00 a 06:00 en mm
DESCASC
Precipitaciones de 06:00 a 12:00 en mm
DESCASC
Precipitaciones de 12:00 a 18:00 en mm
DESCASC
Precipitaciones de 18:00 a 24:00 en mm
DESCASC
19-09-2019 23 (15:50) 15 (08:20) 19 6.67 (16:10) 4.17 (16:30) 0 0 0 0 0
18-09-2019 23 (15:10) 17.4 (04:50) 20.2 6.39 (16:30) 3.61 (18:10) 1.4 0 1.4 0 0
17-09-2019 23.3 (15:50) 17.5 (00:00) 20.4 3.33 (14:40) 2.22 (10:50) 0 0 0 0 0
16-09-2019 23 (13:10) 17 (00:00) 20 4.72 (14:10) 2.78 (14:00) 0 0 0 0 0
15-09-2019 22.9 (12:50) 17.8 (00:00) 20.3 3.89 (13:50) 2.22 (13:10) 0 0 0 0 0
14-09-2019 22.7 (15:50) 16 (00:00) 19.4 3.89 (10:30) 2.5 (14:50) 0 0 0 0 0
13-09-2019 22.2 (16:20) 16.5 (00:00) 19.4 6.67 (23:30) 4.17 (00:10) 0 0 0 0 0
12-09-2019 21.9 (15:50) 11.2 (00:00) 16.5 8.06 (13:50) 5 (16:50) 0 0 0 0 0
11-09-2019 21.5 (16:20) 13.9 (00:00) 17.7 5.28 (17:50) 3.06 (17:50) 5.6 5.4 0.2 0 0
10-09-2019 17 (13:40) 12.6 (06:00) 14.8 10 (11:10) 4.72 (11:10) 39.6 7.4 13.4 7 11.8
09-09-2019 21 (13:00) 13.5 (04:00) 17.3 8.61 (21:40) 4.17 (21:40) 5 0 0 0 5
08-09-2019 21.8 (17:00) 13.6 (00:00) 17.7 5.56 (17:40) 3.33 (17:40) 0 0 0 0 0
07-09-2019 21.9 (17:10) 12.1 (00:00) 17 3.89 (23:50) 2.5 (08:40) 0 0 0 0 0
06-09-2019 20.8 (14:50) 13.6 (00:00) 17.2 5.83 (17:50) 3.33 (18:00) 0.4 0.4 0 0 0
05-09-2019 21.1 (14:10) 14.2 (00:00) 17.7 5.56 (00:30) 2.78 (15:20) 4.2 3.2 0.2 0.6 0.2
04-09-2019 22.7 (14:10) 13.4 (00:00) 18.1 5 (12:10) 3.33 (07:30) 0.2 0 0 0 0.2
03-09-2019 22.3 (17:00) 12.2 (00:00) 17.2 6.94 (16:10) 4.17 (16:10) 0 0 0 0 0
02-09-2019 22.1 (15:40) 15 (00:00) 18.6 8.61 (19:30) 5.28 (19:30) 0.2 0.2 0 0 0
01-09-2019 19.5 (00:00) 15.7 (00:00) 17.6 10.28 (12:40) 4.72 (13:30) 17 0 8.4 8.4 0.2
31-08-2019 21.8 (18:10) 19.5 (00:00) 20.6 3.61 (12:10) 1.94 (11:40) 0.2 0 0 0.2 0
30-08-2019 23.3 (12:40) 19.7 (00:00) 21.5 7.5 (12:00) 4.44 (12:10) 0 0 0 0 0
29-08-2019 25 (16:40) 19.6 (00:00) 22.3 6.39 (22:10) 3.61 (23:40) 0 0 0 0 0
28-08-2019 22.8 (11:20) 18.6 (00:00) 20.7 3.89 (13:00) 2.78 (12:20) 0 0 0 0 0
27-08-2019 23.3 (16:30) 19.2 (00:00) 21.3 5.83 (13:00) 2.5 (12:10) 1.2 1 0.2 0 0
26-08-2019 24 (16:00) 18.3 (00:00) 21.1 6.39 (05:40) 3.89 (04:00) 0.8 0.8 0 0 0
25-08-2019 21.1 (15:50) 17.9 (00:00) 19.5 9.17 (19:50) 5.28 (19:50) 4.2 0 2.6 0 1.6
24-08-2019 21.5 (12:50) 14.5 (00:00) 18 4.17 (13:30) 2.22 (04:30) 0 0 0 0 0
23-08-2019 23.8 (15:10) 14.7 (00:00) 19.2 6.39 (00:50) 3.89 (00:20) 0 0 0 0 0
22-08-2019 23.1 (16:20) 12.5 (00:00) 17.8 8.61 (21:20) 5.28 (21:20) 0 0 0 0 0
21-08-2019 23.5 (17:50) 16.5 (00:00) 20 7.5 (00:10) 4.44 (00:10) 0 0 0 0 0

Gráficas

Temp. máximas Temp. mínimas Temp. medias Precipitaciones Rachas de viento máximas Velocidades máximas media en intervalos de 10 minutos

Datos horarios

Fecha y hora oficial Temperatura (ºC) Velocidad del viento (km/h) Dirección del viento Racha (km/h) Dirección de racha Precipitación (mm) Presión (hPa) Tendencia (hPa) Humedad (%)
2019-09-19 23:00:00 17.9 3 Nordeste 8 Este 0 -- -- 93
2019-09-19 22:00:00 18.2 6 Nordeste 13 Nordeste 0 -- -- 94
2019-09-19 21:00:00 18.6 7 Este 16 Este 0 -- -- 92
2019-09-19 20:00:00 19.3 9 Este 20 Nordeste 0 -- -- 89
2019-09-19 19:00:00 19.8 11 Este 22 Este 0 -- -- 86
2019-09-19 18:00:00 21 11 Nordeste 23 Nordeste 0 -- -- 81
2019-09-19 17:00:00 21.3 13 Este 24 Nordeste 0 -- -- 81
2019-09-19 16:00:00 22.6 12 Nordeste 22 Nordeste 0 -- -- 78
2019-09-19 15:00:00 22.5 10 Este 17 Nordeste 0 -- -- 79
2019-09-19 14:00:00 21.8 8 Nordeste 18 Norte 0 -- -- 83
2019-09-19 13:00:00 21.3 9 Norte 13 Norte 0 -- -- 84
2019-09-19 12:00:00 20.8 8 Norte 12 Norte 0 -- -- 86
2019-09-19 11:00:00 19.4 5 Nordeste 7 Nordeste 0 -- -- 97
2019-09-19 10:00:00 17.3 5 Sudoeste 10 Sudoeste 0 -- -- 100
2019-09-19 09:00:00 15.6 8 Sudoeste 11 Sudoeste 0 -- -- 100
2019-09-19 08:00:00 15.2 5 Sudoeste 13 Oeste 0 -- -- 100
2019-09-19 07:00:00 15.3 6 Sudoeste 11 Sudoeste 0 -- -- 100
2019-09-19 06:00:00 15.5 8 Sudoeste 12 Oeste 0 -- -- 100
2019-09-19 05:00:00 15.9 5 Sudoeste 9 Sudoeste 0 -- -- 99
2019-09-19 04:00:00 16.4 4 Sudoeste 10 Sudoeste 0 -- -- 98
2019-09-19 03:00:00 17.3 3 Oeste 5 Oeste 0 -- -- 95
2019-09-19 02:00:00 18.6 2 Sur 17 Este 0 -- -- 94
2019-09-19 01:00:00 18.7 9 Este 20 Este 0 -- -- 93
2019-09-19 00:00:00 18.9 8 Este 22 Nordeste 0 -- -- 92
2019-09-18 23:00:00 19 7 Este 22 Este 0 -- -- 93
2019-09-18 22:00:00 19.2 7 Este 23 Nordeste 0 -- -- 93
2019-09-18 21:00:00 19.3 8 Este 18 Este 0 -- -- 93
2019-09-18 20:00:00 19.5 10 Este 22 Nordeste 0 -- -- 92
2019-09-18 19:00:00 19.9 10 Este 22 Nordeste 0 -- -- 91
2019-09-18 18:00:00 20.3 12 Este 21 Este 0 -- -- 91
2019-09-18 17:00:00 20.9 10 Este 23 Este 0 -- -- 90
2019-09-18 16:00:00 21.8 9 Este 17 Este 0 -- -- 87
2019-09-18 15:00:00 22.5 7 Nordeste 11 Nordeste 0 -- -- 90
2019-09-18 14:00:00 21.7 5 Norte 14 Norte 0 -- -- 91
2019-09-18 13:00:00 21.3 7 Norte 13 Norte 0 -- -- 90
2019-09-18 12:00:00 21.4 8 Norte 15 Norte 0 -- -- 94
2019-09-18 11:00:00 21.6 3 Sur 8 Sudoeste 0 -- -- 99
2019-09-18 10:00:00 19.7 5 Sudoeste 10 Sudoeste 0 -- -- 100
2019-09-18 09:00:00 18.8 5 Sudoeste 10 Sudoeste 1.4 -- -- 100
2019-09-18 08:00:00 18.3 6 Oeste 11 Oeste 0 -- -- 100
2019-09-18 07:00:00 17.9 8 Sudoeste 13 Oeste 0 -- -- 100
2019-09-18 06:00:00 18.1 0 Calma 10 Sudoeste 0 -- -- 100
2019-09-18 05:00:00 17.5 3 Sudoeste 7 Oeste 0 -- -- 100
2019-09-18 04:00:00 18.2 4 Sudoeste 8 Sudoeste 0 -- -- 100
2019-09-18 03:00:00 18.5 2 Oeste 10 Oeste 0 -- -- 100
2019-09-18 02:00:00 18.8 6 Oeste 10 Oeste 0 -- -- 99
2019-09-18 01:00:00 19.3 4 Noroeste 9 Oeste 0 -- -- 99
2019-09-18 00:00:00 19.1 3 Oeste 5 Sudoeste 0 -- -- 98
2019-09-17 23:00:00 19.1 3 Oeste 4 Noroeste 0 -- -- 97
2019-09-17 22:00:00 19.9 0 Calma 9 Noroeste 0 -- -- 96
2019-09-17 21:00:00 20.1 5 Oeste 9 Oeste 0 -- -- 96
2019-09-15 18:00:00 21.5 4 Nordeste 10 Norte 0 -- -- 89
2019-09-15 17:00:00 22.2 6 Norte 14 Norte 0 -- -- 86
2019-09-15 16:00:00 22.1 7 Norte 13 Nordeste 0 -- -- 86
2019-09-15 15:00:00 22.1 8 Norte 14 Norte 0 -- -- 87
2019-09-15 14:00:00 22.7 8 Norte 14 Norte 0 -- -- 86
2019-09-15 13:00:00 22.8 6 Norte 13 Nordeste 0 -- -- 83
2019-09-15 12:00:00 21.4 7 Nordeste 11 Norte 0 -- -- 90
2019-09-15 11:00:00 20 4 Nordeste 8 Nordeste 0 -- -- 94
2019-09-15 10:00:00 19.6 4 Sudoeste 9 Sudoeste 0 -- -- 97
2019-09-15 09:00:00 18.5 6 Oeste 9 Oeste 0 -- -- 99
2019-09-15 08:00:00 18.3 4 Oeste 7 Oeste 0 -- -- 99
2019-09-15 07:00:00 18.2 4 Sudoeste 6 Sudoeste 0 -- -- 98
2019-09-15 06:00:00 18.4 3 Sudoeste 10 Oeste 0 -- -- 99
2019-09-15 05:00:00 18.2 5 Oeste 9 Oeste 0 -- -- 99
2019-09-15 04:00:00 18 5 Sudoeste 9 Oeste 0 -- -- 99
2019-09-15 03:00:00 18.1 5 Sudoeste 10 Oeste 0 -- -- 99
2019-09-15 02:00:00 18.5 0 Calma 8 Oeste 0 -- -- 99
2019-09-15 01:00:00 18.2 4 Oeste 8 Sudoeste 0 -- -- 100
2019-09-15 00:00:00 17.9 3 Sudoeste 7 Sudoeste 0 -- -- 99
2019-09-14 23:00:00 18.2 0 Calma 6 Oeste 0 -- -- 98
2019-09-14 22:00:00 17.9 2 Oeste 5 Nordeste 0 -- -- 97
2019-09-14 21:00:00 18.8 2 Noroeste 4 Nordeste 0 -- -- 94
2019-09-14 20:00:00 20.4 3 Nordeste 9 Nordeste 0 -- -- 90
2019-09-14 19:00:00 21.1 5 Norte 10 Norte 0 -- -- 87
2019-09-14 18:00:00 22.2 5 Nordeste 9 Norte 0 -- -- 83
2019-09-14 17:00:00 22.2 7 Nordeste 12 Nordeste 0 -- -- 84
2019-09-14 16:00:00 22.5 8 Norte 12 Norte 0 -- -- 82
2019-09-14 15:00:00 22.2 8 Norte 13 Norte 0 -- -- 82
2019-09-14 14:00:00 22.3 7 Nordeste 10 Norte 0 -- -- 81
2019-09-14 13:00:00 22.2 6 Nordeste 11 Nordeste 0 -- -- 82
2019-09-14 12:00:00 21.2 6 Nordeste 10 Nordeste 0 -- -- 88
2019-09-14 11:00:00 20.6 7 Nordeste 14 Oeste 0 -- -- 95
2019-09-14 10:00:00 18.4 7 Oeste 12 Oeste 0 -- -- 99
2019-09-14 09:00:00 17.5 5 Sudoeste 7 Oeste 0 -- -- 100
2019-09-14 08:00:00 17.3 4 Sudoeste 6 Sudoeste 0 -- -- 100
2019-09-14 07:00:00 17.2 4 Sudoeste 10 Sudoeste 0 -- -- 100
2019-09-14 06:00:00 16.8 5 Sudoeste 10 Sudoeste 0 -- -- 100
2019-09-14 05:00:00 16.5 4 Sudoeste 11 Oeste 0 -- -- 99
2019-09-14 04:00:00 16.7 4 Oeste 9 Sudoeste 0 -- -- 99
2019-09-14 03:00:00 16.7 2 Sudoeste 6 Sudoeste 0 -- -- 98
2019-09-14 02:00:00 17.5 3 Sudoeste 8 Nordeste 0 -- -- 97
2019-09-14 01:00:00 17.1 0 Calma 12 Este 0 -- -- 97
2019-09-14 00:00:00 18.7 8 Nordeste 24 Nordeste 0 -- -- 97
2019-09-13 23:00:00 18.6 10 Nordeste 21 Este 0 -- -- 97
2019-09-13 22:00:00 18.3 6 Este 17 Este 0 -- -- 97
2019-09-13 21:00:00 18.6 8 Este 16 Nordeste 0 -- -- 96
2019-09-13 20:00:00 19.5 7 Este 16 Nordeste 0 -- -- 92
2019-09-13 19:00:00 20.1 10 Nordeste 18 Nordeste 0 -- -- 89
2019-09-13 18:00:00 21.6 9 Nordeste 20 Nordeste 0 -- -- 86
2019-09-13 17:00:00 22 13 Este 21 Este 0 -- -- 83
2019-09-13 16:00:00 21.7 7 Nordeste 12 Nordeste 0 -- -- 86
2019-09-13 15:00:00 21.3 8 Nordeste 18 Nordeste 0 -- -- 84
2019-09-13 14:00:00 21.5 10 Nordeste 21 Este 0 -- -- 81
2019-09-13 13:00:00 21 10 Nordeste 19 Nordeste 0 -- -- 79
2019-09-13 12:00:00 21 8 Nordeste 15 Nordeste 0 -- -- 77
2019-09-13 11:00:00 19.4 5 Nordeste 12 Nordeste 0 -- -- 85
2019-09-13 10:00:00 18.3 6 Nordeste 10 Nordeste 0 -- -- 88
2019-09-13 09:00:00 17.6 5 Nordeste 21 Este 0 -- -- 93
2019-09-13 08:00:00 17.5 8 Este 21 Este 0 -- -- 95
2019-09-13 07:00:00 17.3 5 Este 21 Este 0 -- -- 94
2019-09-13 06:00:00 16.8 10 Este 21 Este 0 -- -- 95
2019-09-13 05:00:00 17 8 Nordeste 16 Este 0 -- -- 92
2019-09-13 04:00:00 17 9 Nordeste 18 Este 0 -- -- 94
2019-09-13 03:00:00 16.7 7 Este 15 Este 0 -- -- 94
2019-09-13 02:00:00 17.2 9 Este 18 Nordeste 0 -- -- 93
2019-09-13 01:00:00 17.6 9 Nordeste 23 Nordeste 0 -- -- 93
2019-09-13 00:00:00 17.7 12 Nordeste 22 Este 0 -- -- 93
2019-09-12 23:00:00 17.4 10 Este 23 Este 0 -- -- 91
2019-09-12 22:00:00 17.7 12 Este 26 Este 0 -- -- 91
2019-09-12 21:00:00 18.1 14 Este 27 Este 0 -- -- 92
2019-09-12 20:00:00 19.1 16 Este 28 Nordeste 0 -- -- 87
2019-09-12 19:00:00 20.4 16 Este 28 Este 0 -- -- 83
2019-09-12 18:00:00 21.4 12 Este 25 Este 0 -- -- 83
2019-09-12 17:00:00 21.2 15 Este 28 Este 0 -- -- 83
2019-09-12 16:00:00 21.7 16 Este 26 Este 0 -- -- 79
2019-09-12 15:00:00 21.6 15 Este 27 Este 0 -- -- 80
2019-09-12 14:00:00 20.7 14 Este 29 Nordeste 0 -- -- 80
2019-09-12 13:00:00 20.5 14 Nordeste 23 Este 0 -- -- 77
2019-09-12 12:00:00 19.6 13 Nordeste 22 Nordeste 0 -- -- 77
2019-09-12 11:00:00 18.3 9 Nordeste 19 Nordeste 0 -- -- 82
2019-09-12 10:00:00 16.4 5 Nordeste 12 Nordeste 0 -- -- 98
2019-09-12 09:00:00 13.4 3 Este 11 Nordeste 0 -- -- 100
2019-09-12 08:00:00 11.3 0 Calma 6 Norte 0 -- -- 100
2019-09-12 07:00:00 11.7 3 Nordeste 6 Norte 0 -- -- 100
2019-09-12 06:00:00 12.6 2 Oeste 6 Sudoeste 0 -- -- 100
2019-09-12 05:00:00 11.8 5 Sudoeste 8 Sudoeste 0 -- -- 100
2019-09-12 04:00:00 11.5 3 Sudoeste 6 Sudoeste 0 -- -- 99
2019-09-12 03:00:00 11.8 0 Calma 6 Sudoeste 0 -- -- 98
2019-09-12 02:00:00 12.6 2 Sudoeste 6 Sudoeste 0 -- -- 97
2019-09-12 01:00:00 13.7 2 Nordeste 6 Este 0 -- -- 97
2019-09-12 00:00:00 13.9 2 Oeste 5 Sudoeste 0 -- -- 96
2019-09-11 23:00:00 15.1 3 Sudoeste 5 Sudoeste 0 -- -- 95
2019-09-11 22:00:00 15.4 0 Calma 3 Nordeste 0 -- -- 93
2019-09-11 21:00:00 16.8 2 Este 13 Este 0 -- -- 86
2019-09-11 20:00:00 19.1 8 Este 14 Este 0 -- -- 78
2019-09-11 19:00:00 20.4 9 Este 16 Nordeste 0 -- -- 72
2019-09-11 18:00:00 20.8 10 Este 19 Este 0 -- -- 70
2019-09-11 17:00:00 21.4 8 Este 13 Este 0 -- -- 71
2019-09-11 16:00:00 21.3 8 Nordeste 13 Este 0 -- -- 70
2019-09-11 15:00:00 20.7 6 Nordeste 12 Nordeste 0 -- -- 72
2019-09-11 14:00:00 21 5 Nordeste 9 Este 0 -- -- 74
2019-09-11 13:00:00 20.8 5 Este 10 Este 0 -- -- 75
2019-09-11 12:00:00 19.7 5 Este 12 Nordeste 0 -- -- 86
2019-09-11 11:00:00 16.9 3 Sudoeste 8 Sudoeste 0 -- -- 98
2019-09-11 10:00:00 16.3 5 Oeste 10 Oeste 0 -- -- 99
2019-09-11 09:00:00 15.7 8 Oeste 13 Oeste 0 -- -- 100
2019-09-11 08:00:00 15.2 7 Oeste 11 Oeste 0 -- -- 100
2019-09-11 07:00:00 15 5 Oeste 10 Oeste 0.2 -- -- 100
2019-09-11 06:00:00 15.2 6 Oeste 12 Oeste 0.4 -- -- 100
2019-09-11 05:00:00 15.3 5 Oeste 12 Sudoeste 2.6 -- -- 100
2019-09-11 04:00:00 15.2 7 Sudoeste 12 Sudoeste 0 -- -- 100
2019-09-11 03:00:00 15.1 3 Oeste 13 Oeste 2.2 -- -- 99
2019-09-11 02:00:00 15.4 8 Oeste 14 Oeste 0 -- -- 99
2019-09-11 01:00:00 15.1 3 Noroeste 8 Oeste 0.2 -- -- 99
2019-09-11 00:00:00 15.2 2 Sudoeste 8 Oeste 0 -- -- 99
2019-09-10 23:00:00 15.2 2 Oeste 13 Este 0 -- -- 97
2019-09-10 22:00:00 15.9 0 Calma 19 Este 1 -- -- 96
2019-09-10 21:00:00 15.8 3 Oeste 12 Sudoeste 0 -- -- 97
2019-09-10 20:00:00 15.9 9 Sudoeste 20 Oeste 5.2 -- -- 97
2019-09-10 19:00:00 15.9 6 Sur 18 Sudoeste 5.6 -- -- 96
2019-09-10 18:00:00 15.6 13 Sudoeste 24 Oeste 1.6 -- -- 94
2019-09-10 17:00:00 16.5 14 Sudoeste 27 Oeste 0 -- -- 88
2019-09-10 16:00:00 16 11 Sudoeste 23 Sudoeste 0.6 -- -- 92
2019-09-10 15:00:00 15.6 8 Sudeste 23 Oeste 2.4 -- -- 92
2019-09-10 14:00:00 16 6 Sur 24 Sudeste 1.8 -- -- 88
2019-09-10 13:00:00 16.3 8 Sudoeste 18 Sur 0.6 -- -- 88
2019-09-10 12:00:00 15.4 8 Sudeste 36 Sudoeste 2.2 -- -- 91
2019-09-10 11:00:00 14.2 8 Sur 22 Sur 4.4 -- -- 96
2019-09-10 10:00:00 13.5 8 Sudoeste 27 Sudoeste 6.8 -- -- 93
2019-09-10 09:00:00 14 8 Sudoeste 21 Sudoeste 0 -- -- 90
2019-09-10 08:00:00 13.5 12 Sudoeste 23 Oeste 0 -- -- 91
2019-09-10 07:00:00 13 12 Sudoeste 24 Sudoeste 0 -- -- 92
2019-09-10 06:00:00 12.6 12 Oeste 27 Oeste 0.8 -- -- 94
2019-09-10 05:00:00 13 10 Oeste 20 Sudoeste 0 -- -- 94
2019-09-10 04:00:00 13.1 10 Sudoeste 24 Sudoeste 2.4 -- -- 95
2019-09-10 03:00:00 13.2 6 Sudoeste 24 Oeste 1.6 -- -- 96
2019-09-10 02:00:00 13.5 11 Sudoeste 21 Oeste 2.6 -- -- 95
2019-09-10 01:00:00 14.4 8 Oeste 14 Sudoeste 0 -- -- 94
2019-09-10 00:00:00 14.6 10 Sudoeste 21 Sudoeste 0.4 -- -- 94
2019-09-09 23:00:00 15.1 9 Sudoeste 21 Oeste 1.2 -- -- 96
2019-09-09 22:00:00 15.3 5 Oeste 31 Oeste 3.4 -- -- 93
2019-09-09 21:00:00 17.9 11 Oeste 29 Oeste 0 -- -- 77
2019-09-09 20:00:00 18.8 12 Sudoeste 26 Oeste 0 -- -- 71
2019-09-09 19:00:00 19.8 8 Noroeste 17 Oeste 0 -- -- 69
2019-09-09 18:00:00 20.3 12 Oeste 26 Sudoeste 0 -- -- 68
2019-09-09 17:00:00 20 8 Oeste 27 Sudoeste 0 -- -- 71
2019-09-09 16:00:00 19.6 7 Oeste 22 Oeste 0 -- -- 71
2019-09-09 15:00:00 19.4 10 Oeste 20 Sudoeste 0 -- -- 74
2019-09-09 14:00:00 20 6 Noroeste 16 Norte 0 -- -- 75
2019-09-09 13:00:00 21 6 Noroeste 15 Sudoeste 0 -- -- 67
2019-09-09 12:00:00 19.7 8 Nordeste 12 Norte 0 -- -- 74
2019-09-09 11:00:00 18.5 4 Sudoeste 9 Oeste 0 -- -- 78
2019-09-09 10:00:00 16.8 6 Oeste 12 Oeste 0 -- -- 82
2019-09-09 09:00:00 15.8 8 Sudoeste 13 Sudoeste 0 -- -- 86
2019-09-09 08:00:00 15.1 7 Oeste 13 Sudoeste 0 -- -- 88
2019-09-09 07:00:00 15 8 Oeste 12 Oeste 0 -- -- 88
2019-09-09 06:00:00 14.3 8 Sudoeste 13 Sudoeste 0 -- -- 92
2019-09-09 05:00:00 13.8 6 Oeste 13 Sudoeste 0 -- -- 94
2019-09-09 04:00:00 13.5 5 Oeste 7 Sudoeste 0 -- -- 93
2019-09-09 03:00:00 15.2 0 Calma 6 Este 0 -- -- 89
2019-09-09 02:00:00 16.3 4 Nordeste 11 Este 0 -- -- 85
2019-09-09 01:00:00 16.9 6 Nordeste 16 Este 0 -- -- 81
2019-09-09 00:00:00 17.1 6 Este 13 Este 0 -- -- 83
2019-09-08 23:00:00 16.7 8 Nordeste 11 Nordeste 0 -- -- 87
2019-09-08 22:00:00 15.6 3 Nordeste 6 Nordeste 0 -- -- 89
2019-09-08 21:00:00 17.5 4 Nordeste 12 Este 0 -- -- 87
2019-09-08 20:00:00 19 8 Nordeste 14 Nordeste 0 -- -- 83
2019-09-08 19:00:00 20.5 9 Este 17 Este 0 -- -- 76
2019-09-08 18:00:00 21.4 10 Este 20 Este 0 -- -- 75
2019-09-08 17:00:00 21.8 8 Este 16 Nordeste 0 -- -- 76
2019-09-08 16:00:00 21.1 10 Nordeste 15 Nordeste 0 -- -- 79
2019-09-08 15:00:00 21.2 6 Nordeste 13 Nordeste 0 -- -- 80
2019-09-08 14:00:00 20.7 8 Norte 13 Nordeste 0 -- -- 81
2019-09-08 13:00:00 20.7 6 Nordeste 10 Nordeste 0 -- -- 79
2019-09-08 12:00:00 18.6 6 Nordeste 11 Nordeste 0 -- -- 90
2019-09-08 11:00:00 17.9 3 Nordeste 10 Oeste 0 -- -- 91
2019-09-08 10:00:00 16 3 Sudoeste 8 Sudoeste 0 -- -- 96
2019-09-08 09:00:00 15.3 2 Este 6 Oeste 0 -- -- 96
2019-09-08 08:00:00 15 3 Oeste 9 Oeste 0 -- -- 92
2019-09-08 07:00:00 15 5 Oeste 9 Oeste 0 -- -- 90
2019-09-08 06:00:00 14.9 6 Oeste 11 Oeste 0 -- -- 90
2019-09-08 05:00:00 14.5 5 Sudoeste 11 Sudoeste 0 -- -- 90
2019-09-08 04:00:00 14.5 9 Sudoeste 13 Sudoeste 0 -- -- 90
2019-09-08 03:00:00 14.2 9 Sudoeste 16 Sudoeste 0 -- -- 92
2019-09-08 02:00:00 13.7 9 Oeste 17 Oeste 0 -- -- 93
2019-09-08 01:00:00 13.8 10 Oeste 16 Oeste 0 -- -- 94
2019-09-08 00:00:00 14.1 8 Oeste 14 Oeste 0 -- -- 94
2019-09-07 23:00:00 14.4 6 Sudoeste 12 Oeste 0 -- -- 93
2019-09-07 22:00:00 14.4 5 Sudoeste 8 Sudoeste 0 -- -- 91
2019-09-07 21:00:00 16 3 Noroeste 4 Noroeste 0 -- -- 84
2019-09-07 20:00:00 20.4 0 Calma 7 Nordeste 0 -- -- 71
2019-09-07 19:00:00 21.1 4 Nordeste 11 Nordeste 0 -- -- 66
2019-09-07 18:00:00 21.1 6 Nordeste 12 Nordeste 0 -- -- 67
2019-09-07 17:00:00 21.8 4 Nordeste 10 Norte 0 -- -- 66
2019-09-07 16:00:00 21 6 Norte 13 Norte 0 -- -- 71
2019-09-07 15:00:00 20.5 9 Norte 13 Norte 0 -- -- 69
2019-09-07 14:00:00 20.6 7 Norte 13 Norte 0 -- -- 68
2019-09-07 13:00:00 20.2 6 Norte 14 Norte 0 -- -- 69
2019-09-07 12:00:00 20.1 7 Norte 11 Nordeste 0 -- -- 70
2019-09-07 11:00:00 18.4 4 Nordeste 10 Sudoeste 0 -- -- 73
2019-09-07 10:00:00 15.5 6 Sudoeste 13 Sudoeste 0 -- -- 92
2019-09-07 09:00:00 13.1 9 Sudoeste 14 Sudoeste 0 -- -- 96
2019-09-07 08:00:00 12.4 8 Sudoeste 14 Sudoeste 0 -- -- 97
2019-09-07 07:00:00 12.7 8 Sudoeste 12 Sudoeste 0 -- -- 98
2019-09-07 06:00:00 12.2 6 Sudoeste 13 Oeste 0 -- -- 98
2019-09-07 05:00:00 12.3 8 Sudoeste 12 Sudoeste 0 -- -- 98
2019-09-07 04:00:00 12.6 7 Oeste 11 Sudoeste 0 -- -- 97
2019-09-07 03:00:00 13.1 6 Sudoeste 9 Sudoeste 0 -- -- 96
2019-09-07 02:00:00 13.4 3 Sudoeste 8 Sudoeste 0 -- -- 96
2019-09-07 01:00:00 13.6 4 Oeste 9 Sudoeste 0 -- -- 96
2019-09-07 00:00:00 13.6 4 Sudoeste 7 Sudoeste 0 -- -- 94
2019-09-06 23:00:00 14.4 3 Sudoeste 7 Sudeste 0 -- -- 93
2019-09-06 22:00:00 16 0 Calma 13 Nordeste 0 -- -- 88
2019-09-06 21:00:00 17 7 Este 17 Nordeste 0 -- -- 84
2019-09-06 20:00:00 19 9 Este 15 Este 0 -- -- 75
2019-09-06 19:00:00 19.7 6 Este 17 Nordeste 0 -- -- 77
2019-09-06 18:00:00 20.5 12 Este 21 Este 0 -- -- 74
2019-09-06 17:00:00 20.5 8 Nordeste 17 Nordeste 0 -- -- 74
2019-09-06 16:00:00 20.7 9 Nordeste 14 Nordeste 0 -- -- 70
2019-09-06 15:00:00 20.2 5 Norte 12 Norte 0 -- -- 70
2019-09-06 14:00:00 18.8 8 Este 15 Este 0 -- -- 73
2019-09-06 13:00:00 18.6 5 Nordeste 13 Nordeste 0 -- -- 79
2019-09-06 12:00:00 18.4 3 Nordeste 8 Nordeste 0 -- -- 79
2019-09-06 11:00:00 18.6 5 Nordeste 10 Nordeste 0 -- -- 81
2019-09-06 10:00:00 16.2 4 Nordeste 8 Sudoeste 0 -- -- 97
2019-09-06 09:00:00 14.7 4 Sudoeste 6 Sudoeste 0 -- -- 99
2019-09-06 08:00:00 14 3 Oeste 5 Sudoeste 0 -- -- 99
2019-09-06 07:00:00 14.1 3 Sudoeste 5 Oeste 0 -- -- 99
2019-09-06 06:00:00 14.2 4 Oeste 8 Sudoeste 0 -- -- 98
2019-09-06 05:00:00 14.2 4 Sudoeste 9 Sudoeste 0 -- -- 98
2019-09-06 04:00:00 14.7 4 Oeste 9 Oeste 0 -- -- 99
2019-09-06 03:00:00 14.9 5 Sudoeste 7 Oeste 0 -- -- 98
2019-09-06 02:00:00 15.2 3 Oeste 7 Sudoeste 0 -- -- 97
2019-09-06 01:00:00 15.5 2 Oeste 6 Sudoeste 0.4 -- -- 96
2019-09-06 00:00:00 15.9 0 Calma 7 Oeste 0.2 -- -- 95
2019-09-05 23:00:00 16.1 3 Oeste 4 Noroeste 0 -- -- 93
2019-09-05 22:00:00 16.7 0 Calma 7 Nordeste 0 -- -- 92
2019-09-05 21:00:00 17.3 0 Calma 5 Nordeste 0 -- -- 88
2019-09-05 20:00:00 18.2 2 Nordeste 5 Sudeste 0 -- -- 82
2019-09-05 19:00:00 18.5 2 Nordeste 9 Nordeste 0 -- -- 81
2019-09-05 18:00:00 19.1 2 Nordeste 9 Este 0 -- -- 80
2019-09-05 17:00:00 18.4 0 Calma 3 Norte 0 -- -- 85
2019-09-05 16:00:00 17.8 3 Nordeste 16 Este 0.6 -- -- 86
2019-09-05 15:00:00 19.8 5 Nordeste 13 Norte 0 -- -- 72
2019-09-05 14:00:00 20.6 6 Sudeste 12 Este 0 -- -- 72
2019-09-05 13:00:00 18.1 4 Sudoeste 9 Sudoeste 0 -- -- 88
2019-09-05 12:00:00 16.2 3 Sudoeste 14 Noroeste 0 -- -- 92
2019-09-05 11:00:00 17.1 6 Noroeste 17 Noroeste 0 -- -- 85
2019-09-05 10:00:00 16.9 7 Sudoeste 15 Sudoeste 0 -- -- 93
2019-09-05 09:00:00 14.6 9 Oeste 17 Sudoeste 0 -- -- 98
2019-09-05 08:00:00 14.3 8 Oeste 14 Sudoeste 0.2 -- -- 99
2019-09-05 07:00:00 14.8 6 Sudoeste 12 Oeste 0 -- -- 100
2019-09-05 06:00:00 15.2 6 Oeste 9 Oeste 0 -- -- 99
2019-09-05 05:00:00 15.4 5 Oeste 10 Oeste 0 -- -- 100
2019-09-05 04:00:00 15.6 5 Oeste 11 Oeste 0 -- -- 100
2019-09-05 03:00:00 15.7 3 Sudoeste 6 Oeste 0.2 -- -- 99
2019-09-05 02:00:00 15.7 4 Oeste 7 Oeste 0.4 -- -- 99
2019-09-05 01:00:00 16.3 0 Calma 20 Sudoeste 2.6 -- -- 98
2019-09-05 00:00:00 16.7 4 Oeste 13 Noroeste 0.2 -- -- 96
2019-09-04 23:00:00 16.9 6 Oeste 11 Noroeste 0 -- -- 94
2019-09-04 22:00:00 16.5 5 Oeste 8 Sudoeste 0 -- -- 92
2019-09-04 21:00:00 18.3 2 Oeste 5 Norte 0 -- -- 86
2019-09-04 20:00:00 20.7 3 Noroeste 8 Noroeste 0 -- -- 75
2019-09-04 19:00:00 21 2 Norte 9 Norte 0 -- -- 72
2019-09-04 18:00:00 21.1 3 Nordeste 14 Nordeste 0 -- -- 73
2019-09-04 17:00:00 22.4 8 Norte 13 Nordeste 0 -- -- 72
2019-09-04 16:00:00 21.4 9 Norte 15 Norte 0 -- -- 77
2019-09-04 15:00:00 21.5 6 Norte 16 Norte 0 -- -- 79
2019-09-04 14:00:00 22.6 8 Norte 17 Noroeste 0 -- -- 76
2019-09-04 13:00:00 22.4 9 Norte 18 Norte 0 -- -- 76
2019-09-04 12:00:00 22.3 9 Norte 14 Nordeste 0 -- -- 75
2019-09-04 11:00:00 20.7 4 Este 9 Nordeste 0 -- -- 78
2019-09-04 10:00:00 17.2 5 Sudoeste 13 Sudoeste 0 -- -- 88
2019-09-04 09:00:00 15.4 10 Sudoeste 15 Sudoeste 0 -- -- 91
2019-09-04 08:00:00 14.5 9 Sudoeste 17 Oeste 0 -- -- 93
2019-09-04 07:00:00 14.1 11 Sudoeste 16 Sudoeste 0 -- -- 95
2019-09-04 06:00:00 13.9 9 Sudoeste 14 Sudoeste 0 -- -- 96
2019-09-04 05:00:00 13.7 7 Sudoeste 14 Sudoeste 0 -- -- 96
2019-09-04 04:00:00 13.9 8 Sudoeste 13 Oeste 0 -- -- 97
2019-09-04 03:00:00 13.5 6 Sudoeste 9 Sudoeste 0 -- -- 97
2019-09-04 02:00:00 13.4 4 Sudoeste 6 Sudoeste 0 -- -- 96
2019-09-04 01:00:00 14 4 Sudoeste 8 Este 0 -- -- 93
2019-09-04 00:00:00 15.5 4 Este 11 Nordeste 0 -- -- 90
2019-09-03 23:00:00 16.2 3 Nordeste 8 Este 0 -- -- 86
2019-09-03 22:00:00 17.5 4 Nordeste 13 Este 0 -- -- 83
2019-09-03 21:00:00 18.6 8 Este 18 Nordeste 0 -- -- 83
2019-09-03 20:00:00 20.2 10 Este 19 Este 0 -- -- 80
2019-09-03 19:00:00 21.5 10 Este 17 Este 0 -- -- 79
2019-09-03 18:00:00 21.5 10 Nordeste 20 Nordeste 0 -- -- 80
2019-09-03 17:00:00 22.3 11 Este 25 Este 0 -- -- 78
2019-09-03 16:00:00 21.8 13 Este 24 Este 0 -- -- 79
2019-09-03 15:00:00 21.6 13 Nordeste 22 Este 0 -- -- 79
2019-09-03 14:00:00 21.7 9 Nordeste 19 Este 0 -- -- 76
2019-09-03 13:00:00 21.2 10 Nordeste 19 Este 0 -- -- 70
2019-09-03 12:00:00 20.5 8 Nordeste 17 Nordeste 0 -- -- 68
2019-09-03 11:00:00 18.8 10 Norte 15 Nordeste 0 -- -- 78
2019-09-03 10:00:00 16.9 6 Nordeste 11 Nordeste 0 -- -- 90
2019-09-03 09:00:00 13.2 3 Sudoeste 7 Sudoeste 0 -- -- 96
2019-09-03 08:00:00 12.5 3 Sudoeste 9 Nordeste 0 -- -- 91
2019-09-03 07:00:00 14.9 5 Nordeste 10 Nordeste 0 -- -- 89
2019-09-03 06:00:00 16 7 Nordeste 11 Nordeste 0 -- -- 88
2019-09-03 05:00:00 16.3 7 Nordeste 13 Nordeste 0 -- -- 88
2019-09-03 04:00:00 15.9 6 Nordeste 10 Este 0 -- -- 89
2019-09-03 03:00:00 16.9 8 Este 20 Este 0 -- -- 86
2019-09-03 02:00:00 17.4 13 Este 25 Este 0 -- -- 82
2019-09-03 01:00:00 17.3 10 Este 20 Este 0 -- -- 83
2019-09-03 00:00:00 17.5 11 Este 24 Este 0 -- -- 85
2019-09-02 23:00:00 17.9 11 Este 22 Este 0 -- -- 86
2019-09-02 22:00:00 18.2 14 Este 27 Este 0 -- -- 84
2019-09-02 21:00:00 18.8 14 Este 29 Nordeste 0 -- -- 83
2019-09-02 20:00:00 20.1 18 Este 31 Este 0 -- -- 80
2019-09-02 19:00:00 20.8 19 Este 30 Este 0 -- -- 74
2019-09-02 18:00:00 21.2 15 Este 27 Nordeste 0 -- -- 74
2019-09-02 17:00:00 21.7 15 Este 26 Nordeste 0 -- -- 74
2019-09-02 16:00:00 22.1 11 Este 19 Este 0 -- -- 73
2019-09-02 15:00:00 21.6 11 Este 22 Este 0 -- -- 71
2019-09-02 14:00:00 20.9 14 Nordeste 21 Este 0 -- -- 72
2019-09-02 13:00:00 20.8 13 Nordeste 20 Nordeste 0 -- -- 71
2019-09-02 12:00:00 20.5 11 Nordeste 19 Nordeste 0 -- -- 72
2019-09-02 11:00:00 19.2 6 Nordeste 10 Nordeste 0 -- -- 83
2019-09-02 10:00:00 16.9 2 Sudeste 8 Sudoeste 0 -- -- 96
2019-09-02 09:00:00 15.4 5 Sudoeste 6 Sudoeste 0 -- -- 100
2019-09-02 08:00:00 15.1 4 Sudoeste 6 Sudoeste 0 -- -- 100
2019-09-02 07:00:00 15.2 4 Sudoeste 6 Sudoeste 0 -- -- 100
2019-09-02 06:00:00 15.2 3 Sudoeste 5 Sudoeste 0 -- -- 100
2019-09-02 05:00:00 15.3 2 Sudoeste 4 Sudoeste 0 -- -- 99
2019-09-02 04:00:00 15.4 3 Sudoeste 6 Sudoeste 0 -- -- 98
2019-09-02 03:00:00 15.4 0 Calma 5 Nordeste 0 -- -- 98
2019-09-02 02:00:00 15.5 0 Calma 13 Sur 0 -- -- 99
2019-09-02 01:00:00 15.6 2 Oeste 6 Sudoeste 0.2 -- -- 99
2019-09-02 00:00:00 15.7 3 Sudoeste 6 Oeste 0 -- -- 97
2019-09-01 23:00:00 16 2 Sudoeste 21 Este 0.2 -- -- 96
2019-09-01 22:00:00 16.6 4 Sudoeste 12 Noroeste 0 -- -- 94
2019-09-01 21:00:00 16.3 5 Oeste 7 Oeste 0 -- -- 96
2019-09-01 20:00:00 16.8 0 Calma 5 Sudoeste 0 -- -- 95
2019-09-01 19:00:00 17 3 Sudoeste 9 Sur 0 -- -- 96
2019-09-01 18:00:00 16.5 3 Sudeste 17 Este 0 -- -- 99
2019-09-01 17:00:00 16.7 8 Este 21 Nordeste 3.4 -- -- 100
2019-09-01 16:00:00 16.6 4 Nordeste 22 Nordeste 3.6 -- -- 99
2019-09-01 15:00:00 17 6 Norte 29 Nordeste 0.6 -- -- 98
2019-09-01 14:00:00 17.1 14 Nordeste 35 Nordeste 0.6 -- -- 99
2019-09-01 13:00:00 17.6 16 Norte 37 Nordeste 0.2 -- -- 98
2019-09-01 12:00:00 17.9 13 Norte 30 Nordeste 0.2 -- -- 98
2019-09-01 11:00:00 18 8 Nordeste 35 Oeste 8.2 -- -- 96
2019-09-01 10:00:00 19.3 3 Oeste 10 Sudoeste 0 -- -- 92
2019-09-01 09:00:00 18.5 4 Sudoeste 9 Oeste 0 -- -- 96
2019-09-01 08:00:00 18.1 5 Oeste 8 Oeste 0 -- -- 97
2019-09-01 07:00:00 17.8 5 Oeste 12 Sudoeste 0 -- -- 97
2019-09-01 06:00:00 18.1 8 Oeste 11 Oeste 0 -- -- 96
2019-09-01 05:00:00 18 6 Oeste 10 Oeste 0 -- -- 95
2019-09-01 04:00:00 18.8 4 Oeste 10 Sudoeste 0 -- -- 93
2019-09-01 03:00:00 19 4 Oeste 6 Oeste 0 -- -- 93
2019-09-01 02:00:00 19.4 4 Noroeste 8 Noroeste 0 -- -- 91
2019-09-01 01:00:00 19.3 5 Sudoeste 7 Sudoeste 0 -- -- 92
2019-09-01 00:00:00 19.5 5 Oeste 9 Sudoeste 0 -- -- 91
2019-08-31 23:00:00 19.7 5 Oeste 8 Oeste 0 -- -- 93
2019-08-31 22:00:00 20 4 Oeste 6 Sudoeste 0 -- -- 91
2019-08-31 21:00:00 20.4 3 Oeste 5 Oeste 0 -- -- 91
2019-08-31 20:00:00 20.8 3 Noroeste 5 Noroeste 0 -- -- 88
2019-08-31 19:00:00 21.5 3 Noroeste 9 Oeste 0 -- -- 85
2019-08-31 18:00:00 21.7 4 Sudeste 6 Sudeste 0 -- -- 89
2019-08-31 17:00:00 21.5 3 Nordeste 6 Este 0 -- -- 90
2019-08-31 16:00:00 21.3 4 Nordeste 9 Norte 0 -- -- 91
2019-08-31 15:00:00 21.1 5 Nordeste 8 Nordeste 0 -- -- 96
2019-08-31 14:00:00 20.3 3 Nordeste 11 Norte 0 -- -- 98
2019-08-31 13:00:00 20.1 5 Norte 13 Noroeste 0.2 -- -- 97
2019-08-31 12:00:00 20.7 6 Noroeste 10 Noroeste 0 -- -- 96
2019-08-31 11:00:00 20.9 3 Norte 9 Sudoeste 0 -- -- 97
2019-08-31 10:00:00 20.2 3 Oeste 8 Sudoeste 0 -- -- 99
2019-08-31 09:00:00 19.8 4 Sudoeste 8 Oeste 0 -- -- 98
2019-08-31 08:00:00 19.9 4 Oeste 9 Oeste 0 -- -- 97
2019-08-31 07:00:00 20 5 Oeste 9 Sudoeste 0 -- -- 98
2019-08-31 06:00:00 20.1 6 Oeste 9 Oeste 0 -- -- 98
2019-08-31 05:00:00 20.1 3 Sur 5 Oeste 0 -- -- 98
2019-08-31 04:00:00 20.1 3 Sudoeste 5 Sudoeste 0 -- -- 98
2019-08-31 03:00:00 20.2 3 Oeste 5 Sudoeste 0 -- -- 98
2019-08-31 02:00:00 20.2 0 Calma 8 Nordeste 0 -- -- 97
2019-08-31 01:00:00 20.2 5 Nordeste 9 Este 0 -- -- 98
2019-08-31 00:00:00 20 3 Norte 8 Nordeste 0 -- -- 98
2019-08-30 23:00:00 20.3 4 Nordeste 9 Este 0 -- -- 98
2019-08-30 22:00:00 20.2 4 Este 10 Este 0 -- -- 97
2019-08-30 21:00:00 20.5 3 Nordeste 8 Nordeste 0 -- -- 96
2019-08-30 20:00:00 20.7 5 Este 10 Este 0 -- -- 95
2019-08-30 19:00:00 21 5 Este 12 Este 0 -- -- 94
2019-08-30 18:00:00 21.3 5 Nordeste 14 Este 0 -- -- 94
2019-08-30 17:00:00 21.6 6 Este 16 Este 0 -- -- 92
2019-08-30 16:00:00 22.1 8 Nordeste 17 Este 0 -- -- 90
2019-08-30 15:00:00 22.5 8 Nordeste 14 Este 0 -- -- 88
2019-08-30 14:00:00 22.8 8 Nordeste 19 Nordeste 0 -- -- 86
2019-08-30 13:00:00 23 12 Nordeste 25 Este 0 -- -- 83
2019-08-30 12:00:00 22.6 14 Nordeste 27 Este 0 -- -- 83
2019-08-30 11:00:00 22.3 14 Nordeste 21 Nordeste 0 -- -- 86
2019-08-30 10:00:00 21.6 13 Este 23 Este 0 -- -- 89
2019-08-30 09:00:00 20.4 10 Este 21 Este 0 -- -- 94
2019-08-30 08:00:00 19.7 9 Este 18 Este 0 -- -- 95
2019-08-30 07:00:00 19.8 8 Este 21 Este 0 -- -- 94
2019-08-30 06:00:00 20.3 10 Este 24 Este 0 -- -- 93
2019-08-30 05:00:00 20.4 13 Este 24 Este 0 -- -- 92
2019-08-30 04:00:00 20.4 12 Este 21 Este 0 -- -- 92
2019-08-30 03:00:00 20.2 7 Este 14 Este 0 -- -- 92
2019-08-30 02:00:00 20.4 8 Este 18 Este 0 -- -- 92
2019-08-30 01:00:00 20.4 8 Nordeste 18 Nordeste 0 -- -- 91
2019-08-30 00:00:00 20.5 10 Este 22 Este 0 -- -- 92
2019-08-29 23:00:00 20.5 12 Este 23 Este 0 -- -- 94
2019-08-29 22:00:00 20.5 12 Este 21 Este 0 -- -- 93
2019-08-29 21:00:00 20.8 9 Este 19 Este 0 -- -- 92
2019-08-29 20:00:00 22 9 Este 18 Este 0 -- -- 89
2019-08-29 19:00:00 23.2 11 Este 20 Este 0 -- -- 85
2019-08-29 18:00:00 24.3 8 Este 17 Nordeste 0 -- -- 83
2019-08-29 17:00:00 24.8 5 Nordeste 12 Este 0 -- -- 82
2019-08-29 16:00:00 24.2 6 Nordeste 12 Nordeste 0 -- -- 84
2019-08-29 15:00:00 23.5 8 Norte 12 Noroeste 0 -- -- 82
2019-08-29 14:00:00 23.9 6 Norte 13 Nordeste 0 -- -- 79
2019-08-29 13:00:00 24.1 7 Norte 11 Norte 0 -- -- 81
2019-08-29 12:00:00 22.3 7 Norte 13 Norte 0 -- -- 88
2019-08-29 11:00:00 22.5 4 Sudoeste 8 Sudoeste 0 -- -- 90
2019-08-29 10:00:00 20.9 6 Oeste 12 Oeste 0 -- -- 97
2019-08-29 09:00:00 20 5 Oeste 9 Oeste 0 -- -- 99
2019-08-29 08:00:00 19.6 5 Sudoeste 8 Sudoeste 0 -- -- 99
2019-08-29 07:00:00 19.7 2 Sudoeste 6 Sudoeste 0 -- -- 98
2019-08-29 06:00:00 19.7 3 Sudoeste 6 Sudoeste 0 -- -- 98
2019-08-29 05:00:00 19.8 3 Sudoeste 6 Sudoeste 0 -- -- 98
2019-08-29 04:00:00 19.8 3 Oeste 5 Oeste 0 -- -- 98
2019-08-29 03:00:00 19.9 3 Sudoeste 4 Sudoeste 0 -- -- 98
2019-08-29 02:00:00 20 0 Calma 3 Oeste 0 -- -- 97
2019-08-29 01:00:00 20.2 0 Calma 4 Sudoeste 0 -- -- 96
2019-08-29 00:00:00 20.2 0 Calma 3 Oeste 0 -- -- 95
2019-08-28 23:00:00 20.2 2 Oeste 4 Oeste 0 -- -- 94
2019-08-28 22:00:00 20.6 0 Calma 4 Nordeste 0 -- -- 93
2019-08-28 21:00:00 20.9 2 Sudoeste 7 Oeste 0 -- -- 90
2019-08-28 20:00:00 21.2 4 Noroeste 8 Norte 0 -- -- 86
2019-08-28 19:00:00 22 4 Noroeste 8 Nordeste 0 -- -- 85
2019-08-28 18:00:00 22 2 Oeste 9 Oeste 0 -- -- 84
2019-08-28 17:00:00 21.8 4 Oeste 13 Noroeste 0 -- -- 87
2019-08-28 16:00:00 21.7 4 Oeste 12 Oeste 0 -- -- 86
2019-08-28 15:00:00 21.8 4 Noroeste 12 Noroeste 0 -- -- 85
2019-08-28 14:00:00 22.3 6 Noroeste 13 Norte 0 -- -- 86
2019-08-28 13:00:00 22.1 8 Norte 14 Norte 0 -- -- 87
2019-08-28 12:00:00 22.4 6 Nordeste 12 Norte 0 -- -- 85
2019-08-28 11:00:00 22 8 Nordeste 10 Nordeste 0 -- -- 93
2019-08-28 10:00:00 20.9 4 Nordeste 7 Norte 0 -- -- 99
2019-08-28 09:00:00 19.6 4 Sudoeste 6 Sudoeste 0 -- -- 100
2019-08-28 08:00:00 18.7 0 Calma 4 Sudoeste 0 -- -- 100
2019-08-28 07:00:00 19 4 Sudoeste 6 Sudoeste 0 -- -- 99
2019-08-28 06:00:00 19.4 3 Oeste 5 Sudoeste 0 -- -- 98
2019-08-28 05:00:00 19.6 3 Oeste 5 Sudoeste 0 -- -- 98
2019-08-28 04:00:00 19.9 2 Sudoeste 4 Oeste 0 -- -- 97
2019-08-28 03:00:00 20.1 0 Calma 5 Nordeste 0 -- -- 97
2019-08-28 02:00:00 20 3 Nordeste 5 Sudeste 0 -- -- 96
2019-08-28 01:00:00 20.1 3 Este 5 Este 0 -- -- 97
2019-08-28 00:00:00 20.3 0 Calma 4 Nordeste 0 -- -- 97
2019-08-27 23:00:00 20.3 2 Nordeste 3 Nordeste 0 -- -- 96
2019-08-27 22:00:00 20.4 2 Norte 4 Nordeste 0 -- -- 94
2019-08-27 21:00:00 21 3 Nordeste 5 Norte 0 -- -- 91
2019-08-27 20:00:00 21.5 5 Norte 8 Norte 0 -- -- 89
2019-08-27 19:00:00 22.5 5 Nordeste 9 Este 0 -- -- 85
2019-08-27 18:00:00 22.2 5 Norte 9 Norte 0 -- -- 88
2019-08-27 17:00:00 22.9 6 Norte 13 Norte 0 -- -- 86
2019-08-27 16:00:00 22.7 7 Norte 11 Norte 0 -- -- 85
2019-08-27 15:00:00 22.7 6 Nordeste 12 Norte 0 -- -- 85
2019-08-27 14:00:00 22.3 5 Norte 10 Norte -- -- -- 83
2019-08-27 13:00:00 22.1 3 Nordeste 21 Este -- -- -- 87
2019-08-27 12:00:00 21.1 8 Oeste 14 Oeste -- -- -- 99
2019-08-27 11:00:00 20 6 Oeste 10 Oeste 0 -- -- 100
2019-08-27 10:00:00 19.7 3 Oeste 8 Sudoeste 0 -- -- 100
2019-08-27 09:00:00 19.3 4 Sudoeste 8 Sudoeste 0 -- -- 100
2019-08-27 08:00:00 19.5 4 Oeste 8 Oeste 0.2 -- -- 100
2019-08-27 07:00:00 19.3 2 Sudoeste 4 Sudoeste 0 -- -- 100
2019-08-27 06:00:00 19.7 2 Oeste 8 Sudoeste 0 -- -- 100
2019-08-27 05:00:00 19.9 4 Sudoeste 10 Oeste 0.8 -- -- 100
2019-08-27 04:00:00 20.1 6 Oeste 9 Oeste 0.2 -- -- 100
2019-08-27 03:00:00 20.3 5 Sudoeste 9 Oeste 0 -- -- 99
2019-08-27 02:00:00 20.4 3 Oeste 8 Sudoeste 0 -- -- 99
2019-08-27 01:00:00 20.5 3 Nordeste 9 Este 0 -- -- 99
2019-08-27 00:00:00 20.5 3 Nordeste 8 Nordeste 0 -- -- 99
2019-08-26 23:00:00 20.5 0 Calma 7 Norte 0 -- -- 98
2019-08-26 22:00:00 20.3 4 Norte 10 Oeste 0 -- -- 97
2019-08-26 21:00:00 21 7 Oeste 19 Oeste 0 -- -- 95
2019-08-26 20:00:00 21.3 6 Este 20 Este 0 -- -- 96
2019-08-26 19:00:00 21.5 8 Este 15 Nordeste 0 -- -- 94
2019-08-26 18:00:00 22.2 8 Norte 16 Nordeste 0 -- -- 92
2019-08-26 17:00:00 22.9 6 Norte 13 Norte 0 -- -- 87
2019-08-26 16:00:00 24 7 Norte 13 Norte 0 -- -- 83
2019-08-26 15:00:00 23.8 9 Norte 14 Nordeste 0 -- -- 82
2019-08-26 14:00:00 23.4 7 Norte 15 Nordeste 0 -- -- 83
2019-08-26 13:00:00 22.8 9 Norte 13 Norte 0 -- -- 84
2019-08-26 12:00:00 22.6 7 Nordeste 12 Nordeste 0 -- -- 85
2019-08-26 11:00:00 21.5 8 Sudoeste 14 Sudoeste 0 -- -- 93
2019-08-26 10:00:00 19.8 4 Oeste 9 Sudoeste 0 -- -- 98
2019-08-26 09:00:00 19.3 2 Sudoeste 5 Sudoeste 0 -- -- 99
2019-08-26 08:00:00 18.8 0 Calma 5 Norte 0 -- -- 99
2019-08-26 07:00:00 18.8 0 Calma 17 Nordeste 0 -- -- 99
2019-08-26 06:00:00 18.7 10 Este 23 Este 0 -- -- 99
2019-08-26 05:00:00 18.7 7 Nordeste 17 Este 0 -- -- 100
2019-08-26 04:00:00 18.6 14 Este 21 Este 0 -- -- 100
2019-08-26 03:00:00 18.4 0 Calma 6 Nordeste 0 -- -- 100
2019-08-26 02:00:00 18.4 2 Norte 4 Nordeste 0.8 -- -- 100
2019-08-26 01:00:00 18.6 2 Oeste 8 Sudoeste 0 -- -- 99
2019-08-26 00:00:00 18.4 6 Oeste 10 Oeste 0 -- -- 99
2019-08-25 23:00:00 18.5 2 Sur 11 Este 0 -- -- 97
2019-08-25 22:00:00 18.9 6 Nordeste 18 Nordeste 0 -- -- 97
2019-08-25 21:00:00 18.9 13 Este 23 Este 0.4 -- -- 96
2019-08-25 20:00:00 19.2 18 Este 33 Este 1.2 -- -- 94
2019-08-25 19:00:00 20.3 9 Este 24 Este 0 -- -- 88
2019-08-25 18:00:00 20.7 12 Este 21 Nordeste 0 -- -- 90
2019-08-25 17:00:00 20.8 4 Nordeste 9 Nordeste 0 -- -- 86
2019-08-25 16:00:00 21 5 Nordeste 9 Oeste 0 -- -- 86
2019-08-25 15:00:00 20.1 4 Sudoeste 19 Nordeste 0 -- -- 93
2019-08-25 14:00:00 19.6 7 Este 12 Este 0 -- -- 93
2019-08-25 13:00:00 20.1 0 Calma 12 Este 0 -- -- 93
2019-08-25 12:00:00 19.4 6 Este 12 Este 0 -- -- 99
2019-08-25 11:00:00 18.4 3 Sudoeste 4 Oeste 0.8 -- -- 99
2019-08-25 10:00:00 18.2 2 Nordeste 14 Este 0.6 -- -- 99
2019-08-25 09:00:00 17.9 5 Este 12 Este 0.6 -- -- 98
2019-08-25 08:00:00 17.9 4 Oeste 8 Sudoeste 0.6 -- -- 97
2019-08-25 07:00:00 18 4 Oeste 6 Sudoeste 0 -- -- 97
2019-08-25 06:00:00 18.1 5 Oeste 7 Sudoeste 0 -- -- 96
2019-08-25 05:00:00 18.1 5 Oeste 9 Oeste 0 -- -- 95
2019-08-25 04:00:00 18.3 4 Sudoeste 9 Sudoeste 0 -- -- 94
2019-08-25 03:00:00 18.6 4 Oeste 6 Sudoeste 0 -- -- 92
2019-08-25 02:00:00 18.7 2 Oeste 6 Sudoeste 0 -- -- 92
2019-08-25 01:00:00 18.8 5 Oeste 6 Oeste 0 -- -- 91
2019-08-25 00:00:00 19 2 Oeste 10 Oeste 0 -- -- 89
2019-08-24 23:00:00 19.1 3 Oeste 4 Oeste 0 -- -- 89
2019-08-24 22:00:00 19.3 2 Noroeste 7 Noroeste 0 -- -- 87
2019-08-24 21:00:00 19.9 0 Calma 6 Norte 0 -- -- 84
2019-08-24 20:00:00 20.2 0 Calma 11 Oeste 0 -- -- 82
2019-08-24 19:00:00 20.6 4 Norte 12 Norte 0 -- -- 82
2019-08-24 18:00:00 21 3 Noroeste 13 Oeste 0 -- -- 83
2019-08-24 17:00:00 20.9 4 Norte 12 Norte 0 -- -- 85
2019-08-24 16:00:00 21.4 6 Nordeste 14 Noroeste 0 -- -- 84
2019-08-24 15:00:00 20.8 4 Oeste 15 Oeste 0 -- -- 84
2019-08-24 14:00:00 21 4 Oeste 15 Oeste 0 -- -- 85
2019-08-24 13:00:00 21.4 4 Oeste 14 Oeste 0 -- -- 83
2019-08-24 12:00:00 20.9 5 Oeste 13 Oeste 0 -- -- 86
2019-08-24 11:00:00 20.5 5 Oeste 14 Oeste 0 -- -- 90
2019-08-24 10:00:00 19.5 4 Sudoeste 9 Sudoeste 0 -- -- 97
2019-08-24 09:00:00 17.3 4 Sudoeste 11 Oeste 0 -- -- 98
2019-08-24 08:00:00 16.7 5 Oeste 9 Oeste 0 -- -- 99
2019-08-24 07:00:00 16 5 Sudoeste 12 Oeste 0 -- -- 99
2019-08-24 06:00:00 14.5 3 Oeste 5 Sudoeste 0 -- -- 99
2019-08-24 05:00:00 15.7 3 Sudoeste 12 Sudoeste 0 -- -- 98
2019-08-24 04:00:00 16.1 4 Oeste 9 Sudoeste 0 -- -- 98
2019-08-24 03:00:00 17.3 8 Sudoeste 10 Oeste 0 -- -- 99
2019-08-24 02:00:00 16.7 6 Sudoeste 8 Sudoeste 0 -- -- 99
2019-08-24 01:00:00 16.8 0 Calma 5 Sudoeste 0 -- -- 98
2019-08-24 00:00:00 18.7 8 Sudoeste 12 Sudoeste 0 -- -- 98
2019-08-23 23:00:00 18.8 4 Oeste 7 Sudoeste 0 -- -- 96
2019-08-23 22:00:00 19.9 2 Oeste 14 Este 0 -- -- 95
2019-08-23 21:00:00 20.8 3 Norte 13 Nordeste 0 -- -- 92
2019-08-23 20:00:00 22.5 3 Norte 13 Nordeste 0 -- -- 87
2019-08-23 19:00:00 22.8 6 Nordeste 17 Nordeste 0 -- -- 84
2019-08-23 18:00:00 23.4 5 Nordeste 19 Este 0 -- -- 80
2019-08-23 17:00:00 23.4 9 Nordeste 16 Este 0 -- -- 76
2019-08-23 16:00:00 23.8 7 Nordeste 15 Nordeste 0 -- -- 73
2019-08-23 15:00:00 23.7 6 Nordeste 15 Nordeste 0 -- -- 74
2019-08-23 14:00:00 22.7 9 Norte 13 Este 0 -- -- 81
2019-08-23 13:00:00 22.5 8 Nordeste 15 Nordeste 0 -- -- 81
2019-08-23 12:00:00 22 8 Norte 14 Nordeste 0 -- -- 75
2019-08-23 11:00:00 20.5 6 Nordeste 10 Nordeste 0 -- -- 82
2019-08-23 10:00:00 18.2 0 Calma 10 Sudoeste 0 -- -- 95
2019-08-23 09:00:00 16 6 Sudoeste 14 Sudoeste 0 -- -- 98
2019-08-23 08:00:00 15 8 Sudoeste 15 Oeste 0 -- -- 98
2019-08-23 07:00:00 15.3 10 Sudoeste 15 Oeste 0 -- -- 98
2019-08-23 06:00:00 15.4 9 Sudoeste 15 Sudoeste 0 -- -- 98
2019-08-23 05:00:00 15.5 8 Sudoeste 15 Sudoeste 0 -- -- 98
2019-08-23 04:00:00 15 6 Oeste 13 Sudoeste 0 -- -- 98
2019-08-23 03:00:00 15.4 3 Oeste 6 Oeste 0 -- -- 96
2019-08-23 02:00:00 16.9 4 Sudoeste 15 Este 0 -- -- 93
2019-08-23 01:00:00 19.3 11 Este 23 Este 0 -- -- 93
2019-08-23 00:00:00 19.6 15 Este 26 Nordeste 0 -- -- 92
2019-08-22 23:00:00 19.8 13 Este 30 Este 0 -- -- 91
2019-08-22 22:00:00 20.4 17 Este 31 Este 0 -- -- 88
2019-08-22 21:00:00 20.5 16 Este 28 Este 0 -- -- 91
2019-08-22 20:00:00 21.8 10 Este 22 Este 0 -- -- 89
2019-08-22 19:00:00 22.7 10 Este 22 Nordeste 0 -- -- 87
2019-08-22 18:00:00 22.9 13 Nordeste 24 Nordeste 0 -- -- 85
2019-08-22 17:00:00 23.1 13 Este 27 Este 0 -- -- 83
2019-08-22 16:00:00 23 15 Este 27 Este 0 -- -- 83
2019-08-22 15:00:00 22.7 17 Nordeste 29 Nordeste 0 -- -- 83
2019-08-22 14:00:00 22.9 14 Este 23 Este 0 -- -- 80
2019-08-22 13:00:00 22.4 16 Nordeste 22 Este 0 -- -- 78
2019-08-22 12:00:00 22 11 Nordeste 21 Este 0 -- -- 75
2019-08-22 11:00:00 21.2 10 Nordeste 19 Este 0 -- -- 78
2019-08-22 10:00:00 19.9 9 Nordeste 18 Este 0 -- -- 91
2019-08-22 09:00:00 16 5 Nordeste 9 Nordeste 0 -- -- 100
2019-08-22 08:00:00 12.5 2 Sudoeste 8 Sudoeste 0 -- -- 99
2019-08-22 07:00:00 13.2 2 Oeste 8 Sudoeste 0 -- -- 98
2019-08-22 06:00:00 13.6 4 Sudoeste 8 Sudoeste 0 -- -- 97
2019-08-22 05:00:00 14.3 3 Sudoeste 12 Nordeste 0 -- -- 94
2019-08-22 04:00:00 17.6 8 Este 17 Este 0 -- -- 96
2019-08-22 03:00:00 15.6 4 Nordeste 9 Nordeste 0 -- -- 100
2019-08-22 02:00:00 15.1 3 Sudoeste 6 Sudoeste 0 -- -- 98
2019-08-22 01:00:00 15.8 2 Oeste 5 Sudoeste 0 -- -- 97
2019-08-22 00:00:00 16.5 0 Calma 9 Este 0 -- -- 95
2019-08-21 23:00:00 17.5 0 Calma 9 Este 0 -- -- 93
2019-08-21 22:00:00 19.6 6 Este 15 Este 0 -- -- 91
2019-08-21 21:00:00 20.5 6 Este 12 Nordeste 0 -- -- 87
2019-08-21 20:00:00 22.1 8 Este 15 Este 0 -- -- 80
2019-08-21 19:00:00 23.1 8 Este 15 Este 0 -- -- 76
2019-08-21 18:00:00 23.4 9 Este 18 Este 0 -- -- 76
2019-08-21 17:00:00 23.4 10 Este 18 Este 0 -- -- 76
2019-08-21 16:00:00 23.1 8 Nordeste 15 Este 0 -- -- 77
2019-08-21 15:00:00 22.9 9 Nordeste 19 Este 0 -- -- 77
2019-08-21 14:00:00 22.1 15 Nordeste 22 Nordeste 0 -- -- 77
2019-08-21 13:00:00 22.5 11 Este 21 Nordeste 0 -- -- 75
2019-08-21 12:00:00 21.9 11 Nordeste 20 Nordeste 0 -- -- 72
2019-08-21 11:00:00 21.2 9 Nordeste 17 Este 0 -- -- 74
2019-08-21 10:00:00 19.4 10 Este 16 Este 0 -- -- 77
2019-08-21 09:00:00 18 7 Este 13 Este 0 -- -- 81
2019-08-21 08:00:00 17.1 8 Este 13 Este 0 -- -- 83
2019-08-21 07:00:00 17.1 6 Nordeste 19 Este 0 -- -- 83
2019-08-21 06:00:00 17.4 9 Este 23 Este 0 -- -- 82
2019-08-21 05:00:00 17.6 10 Este 19 Este 0 -- -- 82
2019-08-21 04:00:00 17.8 12 Este 24 Este 0 -- -- 83
2019-08-21 03:00:00 18 14 Este 24 Este 0 -- -- 82
2019-08-21 02:00:00 17.9 14 Este 22 Este 0 -- -- 82
2019-08-21 01:00:00 18.2 13 Este 27 Este 0 -- -- 79
2019-08-21 00:00:00 18.5 16 Este 31 Este 0 -- -- 78